Time;durP1;ratioP1;P1;durP2;ratioP2;P2;SDS_P1;SDS_P2;PMS_P1;PMS_P2;Temp;Humidity;BMP_temperature;BMP_pressure;BME280_temperature;BME280_humidity;BME280_pressure;Samples;Min_cycle;Max_cycle;Signal;HPM_P1;HPM_P2
2022/09/04 00:01:28;;;;;;;8.55;5.67;;;;;;;11.83;82.81;99315.56;2128737;83;21375;-78
2022/09/04 00:04:29;;;;;;;6.95;5.50;;;;;;;11.77;82.96;99314.13;2128770;84;20981;-79
2022/09/04 00:07:29;;;;;;;7.58;6.12;;;;;;;11.75;83.02;99321.95;2128971;83;20945;-79
2022/09/04 00:10:30;;;;;;;9.98;6.03;;;;;;;11.75;83.61;99319.77;2128694;83;21380;-79
2022/09/04 00:13:30;;;;;;;7.37;5.73;;;;;;;11.74;83.67;99319.31;2128697;84;20941;-79
2022/09/04 00:16:30;;;;;;;11.83;6.53;;;;;;;11.72;83.33;99326.27;2128900;84;20977;-79
2022/09/04 00:19:31;;;;;;;9.03;6.00;;;;;;;11.71;83.40;99323.20;2128761;83;21308;-79
2022/09/04 00:22:31;;;;;;;7.60;6.20;;;;;;;11.70;83.40;99319.70;2128646;84;20945;-79
2022/09/04 00:25:32;;;;;;;7.20;6.23;;;;;;;11.70;83.40;99329.28;2118744;84;21033;-79
2022/09/04 00:28:32;;;;;;;9.37;6.37;;;;;;;11.65;83.23;99327.03;2119222;83;20978;-79
2022/09/04 00:31:35;;;;;;;7.25;5.75;;;;;;;11.61;83.97;99330.02;2119190;83;20938;-79
2022/09/04 00:34:33;;;;;;;10.95;6.40;;;;;;;11.60;83.72;99331.30;2119091;83;20949;-79
2022/09/04 00:37:33;;;;;;;8.87;6.30;;;;;;;11.59;83.67;99343.92;2119205;84;20950;-79
2022/09/04 00:40:34;;;;;;;6.87;6.17;;;;;;;11.54;83.75;99345.16;2119161;84;20970;-79
2022/09/04 00:43:34;;;;;;;6.87;6.13;;;;;;;11.51;83.89;99341.62;2119019;83;20929;-79
2022/09/04 00:46:36;;;;;;;8.67;5.97;;;;;;;11.49;83.94;99339.86;2119299;84;20947;-79
2022/09/04 00:49:41;;;;;;;7.77;6.63;;;;;;;11.46;84.24;99341.12;2119454;83;20937;-80
2022/09/04 00:52:38;;;;;;;8.47;6.00;;;;;;;11.36;83.72;99339.21;2119471;84;20949;-80
2022/09/04 00:55:39;;;;;;;6.63;5.90;;;;;;;11.29;84.30;99329.51;2119381;84;21084;-79
2022/09/04 00:58:39;;;;;;;7.10;6.10;;;;;;;11.25;84.13;99336.81;2119020;84;21313;-80
2022/09/04 01:01:40;;;;;;;6.93;6.23;;;;;;;11.23;84.34;99330.68;2119251;84;20957;-80
2022/09/04 01:04:40;;;;;;;7.37;5.83;;;;;;;11.16;83.96;99331.43;2119240;84;20930;-79
2022/09/04 01:07:41;;;;;;;6.70;6.00;;;;;;;11.06;83.99;99333.43;2119216;84;20985;-79
2022/09/04 01:10:41;;;;;;;8.40;6.43;;;;;;;10.99;84.36;99332.87;2119110;84;21333;-79
2022/09/04 01:13:41;;;;;;;7.30;6.50;;;;;;;10.95;84.49;99329.33;2119138;84;20985;-79
2022/09/04 01:16:42;;;;;;;7.97;6.70;;;;;;;10.93;84.68;99336.68;2119624;83;20926;-79
2022/09/04 01:19:42;;;;;;;7.70;6.37;;;;;;;10.91;84.81;99335.77;2119073;84;21384;-80
2022/09/04 01:22:43;;;;;;;7.80;6.00;;;;;;;10.89;84.70;99349.22;2119316;84;20977;-79
2022/09/04 01:25:46;;;;;;;11.50;5.87;;;;;;;10.79;83.89;99346.44;2143952;83;21483;-79
2022/09/04 01:28:43;;;;;;;6.97;6.33;;;;;;;10.65;83.68;99347.91;2145344;83;20977;-79
2022/09/04 01:31:44;;;;;;;6.97;6.00;;;;;;;10.57;84.00;99335.56;2145548;83;20944;-80
2022/09/04 01:34:44;;;;;;;7.37;6.33;;;;;;;10.55;84.08;99337.26;2145298;83;20947;-79
2022/09/04 01:37:46;;;;;;;8.13;6.50;;;;;;;10.41;83.62;99340.48;2145491;83;20972;-80
2022/09/04 01:40:45;;;;;;;8.10;6.23;;;;;;;10.38;84.50;99344.72;2145332;83;20929;-79
2022/09/04 01:43:45;;;;;;;6.90;6.20;;;;;;;10.36;84.39;99345.11;2145154;83;21288;-79
2022/09/04 01:46:46;;;;;;;11.53;6.10;;;;;;;10.32;84.47;99351.11;2145332;83;20996;-79
2022/09/04 01:49:46;;;;;;;7.50;5.97;;;;;;;10.32;84.58;99354.61;2145363;83;20948;-79
2022/09/04 01:52:46;;;;;;;8.30;6.07;;;;;;;10.25;83.96;99355.33;2145026;83;20933;-79
2022/09/04 01:55:47;;;;;;;6.30;5.60;;;;;;;10.22;84.02;99359.17;2144948;83;21016;-79
2022/09/04 01:58:47;;;;;;;7.57;6.77;;;;;;;10.17;83.94;99361.65;2145329;83;21033;-79
2022/09/04 02:01:48;;;;;;;10.73;6.37;;;;;;;10.13;84.13;99362.43;2145149;83;21327;-79
2022/09/04 02:04:48;;;;;;;5.80;5.30;;;;;;;10.12;84.20;99363.28;2145391;83;20980;-79
2022/09/04 02:07:48;;;;;;;6.17;5.57;;;;;;;10.01;83.25;99361.28;2145375;83;21000;-79
2022/09/04 02:10:49;;;;;;;7.70;5.93;;;;;;;9.85;83.46;99366.58;2144839;83;21023;-79
2022/09/04 02:13:50;;;;;;;7.33;6.37;;;;;;;9.76;83.55;99370.28;2145180;83;20984;-79
2022/09/04 02:16:52;;;;;;;7.57;6.20;;;;;;;9.72;83.92;99369.75;2145421;83;21053;-79
2022/09/04 02:19:50;;;;;;;6.97;6.27;;;;;;;9.72;84.08;99379.75;2145202;83;20984;-79
2022/09/04 02:22:50;;;;;;;9.87;6.20;;;;;;;9.67;84.05;99379.19;2144921;83;20956;-79
2022/09/04 02:25:51;;;;;;;6.97;6.00;;;;;;;9.60;84.16;99369.03;2120937;83;21032;-79
2022/09/04 02:28:54;;;;;;;8.57;6.47;;;;;;;9.61;84.64;99373.83;2119171;84;20997;-79
2022/09/04 02:31:55;;;;;;;8.53;6.90;;;;;;;9.58;84.43;99371.60;2118935;84;21008;-79
2022/09/04 02:34:55;;;;;;;9.00;6.20;;;;;;;9.58;84.36;99382.45;2119259;83;20946;-79
2022/09/04 02:38:01;;;;;;;8.43;6.77;;;;;;;9.51;83.82;99380.09;2119078;84;21416;-79
2022/09/04 02:41:02;;;;;;;7.83;6.23;;;;;;;9.38;83.74;99372.81;2119197;84;21021;-81
2022/09/04 02:44:02;;;;;;;7.70;6.37;;;;;;;9.25;83.60;99372.05;2119378;84;20966;-80
2022/09/04 02:47:03;;;;;;;12.17;7.27;;;;;;;9.20;83.92;99377.55;2119206;84;20938;-80
2022/09/04 02:50:03;;;;;;;9.20;7.13;;;;;;;9.17;84.00;99374.88;2119399;84;20910;-80
2022/09/04 02:53:03;;;;;;;9.57;6.60;;;;;;;9.14;83.98;99374.38;2119448;84;20906;-80
2022/09/04 02:56:07;;;;;;;7.07;6.23;;;;;;;9.10;83.89;99370.34;2119020;84;21502;-80
2022/09/04 02:59:04;;;;;;;7.37;6.37;;;;;;;9.07;84.33;99373.75;2119103;84;21025;-80
2022/09/04 03:02:07;;;;;;;8.47;6.13;;;;;;;9.07;84.28;99376.78;2119185;83;20953;-80
2022/09/04 03:05:08;;;;;;;9.53;5.93;;;;;;;9.03;84.23;99375.81;2118992;83;21004;-79
2022/09/04 03:08:11;;;;;;;7.17;6.00;;;;;;;8.99;84.15;99377.88;2119025;84;20953;-79
2022/09/04 03:11:12;;;;;;;8.40;6.53;;;;;;;8.94;84.39;99376.87;2119546;84;20985;-80
2022/09/04 03:14:12;;;;;;;7.33;5.80;;;;;;;8.91;84.21;99373.77;2119409;84;20973;-80
2022/09/04 03:17:12;;;;;;;9.00;6.43;;;;;;;8.84;84.17;99373.56;2119412;84;20969;-80
2022/09/04 03:20:13;;;;;;;7.67;5.73;;;;;;;8.80;84.38;99373.91;2119364;83;20978;-79
2022/09/04 03:23:13;;;;;;;8.97;7.13;;;;;;;8.79;84.41;99381.25;2119359;84;21021;-80
2022/09/04 03:26:14;;;;;;;9.60;6.27;;;;;;;8.76;84.52;99381.17;2118834;84;21424;-79
2022/09/04 03:29:14;;;;;;;7.00;6.03;;;;;;;8.76;85.08;99385.07;2119239;84;20934;-79
2022/09/04 03:32:15;;;;;;;7.60;5.63;;;;;;;8.75;85.04;99385.91;2119279;84;20973;-80
2022/09/04 03:35:15;;;;;;;9.00;5.97;;;;;;;8.75;85.35;99380.70;2119009;84;20946;-79
2022/09/04 03:38:15;;;;;;;10.03;5.57;;;;;;;8.74;85.16;99381.55;2119287;84;21006;-79
2022/09/04 03:41:16;;;;;;;8.00;6.30;;;;;;;8.74;85.16;99386.75;2119145;84;20962;-79
2022/09/04 03:44:17;;;;;;;6.73;6.03;;;;;;;8.76;85.63;99382.47;2119206;83;21357;-79
2022/09/04 03:47:16;;;;;;;7.77;5.90;;;;;;;8.80;86.17;99374.32;2119132;84;20938;-79
2022/09/04 03:50:17;;;;;;;9.80;6.33;;;;;;;8.81;86.60;99379.98;2119298;84;20945;-79
2022/09/04 03:53:17;;;;;;;9.50;6.17;;;;;;;8.84;87.39;99377.05;2119007;84;20926;-79
2022/09/04 03:56:18;;;;;;;10.77;6.37;;;;;;;8.90;87.60;99372.01;2118936;84;21441;-79
2022/09/04 03:59:18;;;;;;;7.77;6.30;;;;;;;8.97;88.17;99377.38;2119207;84;20997;-79
2022/09/04 04:02:18;;;;;;;8.43;6.60;;;;;;;9.04;88.93;99385.39;2119180;84;20965;-79
2022/09/04 04:05:19;;;;;;;11.33;6.87;;;;;;;9.10;88.27;99393.78;2119184;84;21348;-79
2022/09/04 04:08:19;;;;;;;7.90;6.80;;;;;;;9.18;88.78;99390.96;2119215;84;20930;-80
2022/09/04 04:11:20;;;;;;;7.23;6.00;;;;;;;9.24;88.54;99386.79;2119323;84;20961;-80
2022/09/04 04:14:20;;;;;;;9.67;6.80;;;;;;;9.30;88.43;99383.46;2119285;83;20986;-79
2022/09/04 04:17:20;;;;;;;8.87;5.93;;;;;;;9.33;87.82;99395.69;2119191;83;21014;-80
2022/09/04 04:20:21;;;;;;;10.03;6.60;;;;;;;9.30;87.23;99392.58;2119145;84;20961;-80
2022/09/04 04:23:21;;;;;;;9.23;6.20;;;;;;;9.34;87.58;99394.42;2119246;84;21370;-79
2022/09/04 04:26:22;;;;;;;8.87;6.00;;;;;;;9.40;87.97;99390.66;2127953;84;21456;-81
2022/09/04 04:29:24;;;;;;;9.30;6.13;;;;;;;9.46;88.06;99380.81;2128859;84;20925;-79
2022/09/04 04:32:23;;;;;;;8.13;6.33;;;;;;;9.49;87.81;99390.02;2129159;83;21042;-80
2022/09/04 04:35:23;;;;;;;8.67;6.10;;;;;;;9.53;87.61;99386.64;2129109;84;20944;-79
2022/09/04 04:38:23;;;;;;;7.23;5.63;;;;;;;9.55;87.86;99391.50;2129167;83;21340;-84
2022/09/04 04:41:24;;;;;;;8.70;5.83;;;;;;;11.06;100.00;99386.56;2129035;84;20941;-83
2022/09/04 04:45:48;;;;;;;5.77;5.17;;;;;;;12.56;100.00;99387.23;2128745;84;21001;-84
2022/09/04 04:47:33;;;;;;;6.80;5.43;;;;;;;13.62;95.13;99378.78;2129127;84;21360;-83
2022/09/04 04:50:27;;;;;;;5.80;4.80;;;;;;;14.43;93.37;99390.75;2129019;83;20981;-83
2022/09/04 04:53:27;;;;;;;5.45;4.95;;;;;;;15.06;89.49;99384.01;2129005;84;21281;-81
2022/09/04 04:56:28;;;;;;;5.75;4.87;;;;;;;14.65;79.97;99389.98;2128474;84;21033;-82
2022/09/04 04:59:28;;;;;;;7.20;4.85;;;;;;;13.88;78.93;99399.56;2129137;84;20977;-83
2022/09/04 05:02:29;;;;;;;9.20;5.15;;;;;;;13.34;79.16;99398.20;2129033;84;21005;-82
2022/09/04 05:05:29;;;;;;;6.00;4.85;;;;;;;12.99;79.58;99397.78;2128827;84;21353;-81
2022/09/04 05:08:29;;;;;;;6.53;4.92;;;;;;;12.78;80.49;99403.21;2128923;84;20961;-80
2022/09/04 05:11:30;;;;;;;8.78;4.90;;;;;;;12.64;81.12;99414.40;2128767;84;21004;-80
2022/09/04 05:14:30;;;;;;;7.50;4.55;;;;;;;12.62;81.98;99416.55;2128679;84;21349;-82
2022/09/04 05:17:31;;;;;;;7.33;4.62;;;;;;;12.64;82.50;99419.64;2128763;83;20968;-82
2022/09/04 05:20:31;;;;;;;4.47;4.08;;;;;;;12.65;82.98;99419.20;2128957;84;20969;-82
2022/09/04 05:23:31;;;;;;;6.53;4.97;;;;;;;12.67;83.24;99420.11;2128740;84;21352;-81
2022/09/04 05:26:32;;;;;;;5.45;4.50;;;;;;;12.67;83.65;99423.60;2128457;83;21464;-81
2022/09/04 05:29:32;;;;;;;5.12;4.60;;;;;;;12.71;84.18;99428.02;2128625;84;20946;-82
2022/09/04 05:32:33;;;;;;;5.35;4.75;;;;;;;12.80;84.31;99428.56;2128954;84;20929;-82
2022/09/04 05:35:33;;;;;;;6.60;5.17;;;;;;;12.95;84.49;99422.63;2128900;83;21285;-81
2022/09/04 05:38:33;;;;;;;5.40;4.45;;;;;;;13.03;84.69;99418.38;2128560;84;20961;-81
2022/09/04 05:41:34;;;;;;;5.22;4.72;;;;;;;13.13;84.75;99422.86;2128728;84;20975;-81
2022/09/04 05:44:34;;;;;;;4.95;4.53;;;;;;;13.27;84.76;99426.97;2128938;84;21317;-82
2022/09/04 05:47:35;;;;;;;5.00;4.50;;;;;;;13.47;84.66;99428.48;2128881;84;20945;-81
2022/09/04 05:50:35;;;;;;;6.10;4.85;;;;;;;13.66;84.33;99432.59;2129062;84;20917;-81
2022/09/04 05:53:35;;;;;;;6.50;5.08;;;;;;;13.77;83.66;99431.80;2128559;83;20913;-82
2022/09/04 05:56:36;;;;;;;5.45;4.90;;;;;;;13.95;83.31;99435.48;2128559;83;21060;-81
2022/09/04 05:59:36;;;;;;;8.20;6.05;;;;;;;14.08;83.30;99440.83;2129094;83;20993;-81
2022/09/04 06:02:37;;;;;;;7.30;6.28;;;;;;;14.24;82.81;99437.00;2129175;84;20941;-83
2022/09/04 06:05:37;;;;;;;6.08;5.33;;;;;;;14.37;82.36;99439.27;2129008;84;20973;-82
2022/09/04 06:08:37;;;;;;;6.10;5.50;;;;;;;14.48;81.79;99428.42;2129008;83;20910;-81
2022/09/04 06:11:38;;;;;;;5.80;5.30;;;;;;;14.60;81.31;99435.05;2129049;84;21058;-81
2022/09/04 06:14:38;;;;;;;7.60;5.12;;;;;;;14.72;80.86;99433.36;2129166;84;21019;-81
2022/09/04 06:17:39;;;;;;;5.70;5.20;;;;;;;14.91;80.66;99428.66;2128959;84;21364;-81
2022/09/04 06:20:39;;;;;;;6.58;5.45;;;;;;;15.18;80.41;99428.73;2128890;84;20937;-81
2022/09/04 06:23:39;;;;;;;6.85;4.70;;;;;;;15.43;78.93;99431.42;2129242;83;20972;-81
2022/09/04 06:26:40;;;;;;;8.03;4.15;;;;;;;15.60;78.11;99433.27;2128650;84;21091;-82
2022/09/04 06:29:40;;;;;;;4.87;4.37;;;;;;;15.65;76.68;99428.00;2128735;83;21344;-82
2022/09/04 06:32:41;;;;;;;4.42;4.03;;;;;;;15.58;77.20;99434.98;2128929;84;20978;-81
2022/09/04 06:35:42;;;;;;;6.03;3.65;;;;;;;15.74;77.09;99435.91;2129371;83;20926;-83
2022/09/04 06:38:42;;;;;;;3.92;3.60;;;;;;;15.80;75.60;99436.34;2128831;84;20989;-81
2022/09/04 06:41:43;;;;;;;5.53;3.67;;;;;;;15.86;74.45;99437.22;2128460;84;21004;-80
2022/09/04 06:44:43;;;;;;;3.80;3.20;;;;;;;15.95;73.12;99440.73;2128389;83;20949;-82
2022/09/04 06:47:46;;;;;;;3.77;3.47;;;;;;;16.02;73.15;99451.70;2129112;83;20961;-82
2022/09/04 06:50:47;;;;;;;5.50;3.25;;;;;;;16.20;73.19;99450.36;2128920;84;21360;-82
2022/09/04 06:53:47;;;;;;;4.45;3.75;;;;;;;16.40;73.24;99452.53;2128850;84;20937;-82
2022/09/04 06:56:47;;;;;;;3.58;3.27;;;;;;;16.60;72.53;99449.00;2128814;84;20956;-82
2022/09/04 06:59:48;;;;;;;4.17;3.87;;;;;;;16.91;70.74;99448.05;2128947;84;21002;-81
2022/09/04 07:02:48;;;;;;;3.92;3.60;;;;;;;16.98;69.39;99449.77;2128761;84;20941;-81
2022/09/04 07:05:49;;;;;;;4.85;3.55;;;;;;;16.99;69.71;99459.44;2128943;84;20949;-81
2022/09/04 07:08:49;;;;;;;4.42;4.03;;;;;;;17.14;70.23;99455.86;2129044;84;20957;-81
2022/09/04 07:11:49;;;;;;;3.87;3.58;;;;;;;17.38;69.41;99465.44;2128935;83;20972;-81
2022/09/04 07:14:50;;;;;;;3.80;3.50;;;;;;;17.67;66.55;99466.60;2128884;84;21024;-82
2022/09/04 07:17:52;;;;;;;5.97;3.47;;;;;;;17.79;66.60;99472.67;2128992;84;21059;-82
2022/09/04 07:20:51;;;;;;;3.72;3.42;;;;;;;18.06;65.60;99464.09;2128892;84;21305;-81
2022/09/04 07:23:51;;;;;;;6.40;3.10;;;;;;;18.27;64.42;99470.98;2128800;84;20922;-82
2022/09/04 07:26:51;;;;;;;3.60;3.30;;;;;;;18.32;63.62;99479.75;2128770;84;21057;-82
2022/09/04 07:29:52;;;;;;;11.15;9.30;;;;;;;18.39;63.26;99469.55;2128895;83;21324;-82
2022/09/04 07:32:52;;;;;;;4.30;3.90;;;;;;;18.42;62.59;99470.40;2128749;84;20957;-81
2022/09/04 07:35:53;;;;;;;4.33;3.45;;;;;;;18.42;62.39;99480.97;2128762;84;20929;-81
2022/09/04 07:38:53;;;;;;;3.60;3.30;;;;;;;18.54;61.29;99479.97;2128979;84;20988;-82
2022/09/04 07:41:53;;;;;;;3.77;3.42;;;;;;;18.34;61.63;99478.84;2128766;84;22047;-81
2022/09/04 07:44:54;;;;;;;4.15;3.52;;;;;;;18.09;62.13;99476.84;2128727;84;20964;-82
2022/09/04 07:47:54;;;;;;;3.60;3.20;;;;;;;18.03;62.44;99474.69;2128445;84;21044;-81
2022/09/04 07:51:06;;;;;;;4.20;3.80;;;;;;;18.04;62.51;99479.96;2128931;84;20926;-82
2022/09/04 07:53:55;;;;;;;3.67;3.37;;;;;;;17.83;62.59;99480.13;2128946;84;21325;-81
2022/09/04 07:56:56;;;;;;;4.62;3.65;;;;;;;17.78;63.13;99484.13;2128835;84;21005;-82
2022/09/04 07:59:56;;;;;;;3.87;3.58;;;;;;;17.66;63.17;99492.53;2128970;84;20949;-81
2022/09/04 08:02:56;;;;;;;4.00;3.70;;;;;;;17.66;63.23;99499.14;2128774;84;20981;-81
2022/09/04 08:05:57;;;;;;;3.55;3.27;;;;;;;17.69;63.59;99496.51;2128759;84;20945;-80
2022/09/04 08:08:57;;;;;;;3.83;3.52;;;;;;;18.02;63.51;99490.11;2128898;84;20905;-81
2022/09/04 08:11:57;;;;;;;6.83;3.70;;;;;;;18.10;61.31;99492.24;2128791;84;20956;-81
2022/09/04 08:14:58;;;;;;;4.62;3.95;;;;;;;18.51;62.40;99502.92;2129016;84;20960;-81
2022/09/04 08:18:00;;;;;;;5.83;4.05;;;;;;;18.95;60.18;99507.77;2128876;84;21012;-81
2022/09/04 08:20:59;;;;;;;3.95;3.60;;;;;;;19.08;59.63;99506.32;2129013;84;20989;-81
2022/09/04 08:24:00;;;;;;;4.50;4.10;;;;;;;19.18;58.57;99514.15;2129057;84;20988;-81
2022/09/04 08:26:59;;;;;;;4.08;3.77;;;;;;;19.27;58.97;99516.68;2128567;84;21454;-81
2022/09/04 08:30:02;;;;;;;6.28;3.85;;;;;;;19.33;59.41;99516.16;2128920;84;21047;-81
2022/09/04 08:33:00;;;;;;;4.47;4.08;;;;;;;19.53;58.69;99519.89;2128889;83;21001;-81
2022/09/04 08:36:01;;;;;;;4.15;3.83;;;;;;;19.48;58.01;99520.82;2128776;84;21320;-81
2022/09/04 08:39:01;;;;;;;5.47;4.10;;;;;;;19.25;57.19;99519.80;2128238;84;21009;-81
2022/09/04 08:42:03;;;;;;;4.72;4.33;;;;;;;19.15;58.94;99512.41;2128810;83;20984;-81
2022/09/04 08:45:02;;;;;;;4.20;3.77;;;;;;;19.20;58.80;99517.20;2128848;84;20943;-81
2022/09/04 08:48:02;;;;;;;4.33;3.80;;;;;;;19.25;57.61;99517.15;2128798;83;21372;-80
2022/09/04 08:51:03;;;;;;;5.90;4.03;;;;;;;19.27;58.15;99516.68;2128722;83;20957;-81
2022/09/04 08:54:03;;;;;;;4.53;4.12;;;;;;;19.15;58.61;99514.19;2128799;84;20988;-81
2022/09/04 08:57:04;;;;;;;5.55;4.00;;;;;;;19.18;58.63;99515.47;2128739;83;21009;-80
2022/09/04 09:00:08;;;;;;;4.47;3.80;;;;;;;19.21;57.95;99514.11;2128860;84;21361;-81
2022/09/04 09:03:04;;;;;;;3.80;3.37;;;;;;;19.17;57.40;99519.02;2128497;83;20953;-81
2022/09/04 09:06:05;;;;;;;3.58;3.27;;;;;;;19.23;58.01;99522.45;2128845;84;20945;-81
2022/09/04 09:09:05;;;;;;;3.58;3.27;;;;;;;19.39;56.97;99527.98;2128630;84;20945;-81
2022/09/04 09:12:07;;;;;;;3.40;3.10;;;;;;;19.52;57.37;99522.11;2128544;84;21348;-82
2022/09/04 09:15:06;;;;;;;6.58;6.00;;;;;;;19.89;56.95;99529.53;2128770;83;20993;-81
2022/09/04 09:18:07;;;;;;;4.67;3.83;;;;;;;20.31;56.52;99526.69;2127929;84;20989;-80
2022/09/04 09:21:07;;;;;;;3.27;3.00;;;;;;;20.49;54.74;99525.08;2128336;84;20937;-81
2022/09/04 09:24:07;;;;;;;3.60;3.25;;;;;;;20.65;54.83;99525.23;2128497;84;20992;-81
2022/09/04 09:27:08;;;;;;;4.25;2.90;;;;;;;21.03;54.55;99519.69;2120703;84;21029;-80
2022/09/04 09:30:08;;;;;;;3.17;2.87;;;;;;;21.47;54.26;99516.14;2118445;84;21005;-81
2022/09/04 09:33:08;;;;;;;3.27;2.98;;;;;;;21.78;52.82;99512.83;2118909;84;20981;-81
2022/09/04 09:36:09;;;;;;;3.35;2.98;;;;;;;21.71;51.88;99516.08;2119091;84;20954;-81
2022/09/04 09:39:09;;;;;;;3.15;2.83;;;;;;;21.34;51.85;99513.33;2118930;84;21389;-81
2022/09/04 09:42:12;;;;;;;3.10;2.83;;;;;;;21.25;52.50;99501.57;2119055;84;21006;-80
2022/09/04 09:45:10;;;;;;;5.25;3.10;;;;;;;21.24;51.91;99507.34;2119291;84;20934;-80
2022/09/04 09:48:10;;;;;;;3.35;3.05;;;;;;;21.13;52.73;99517.27;2119138;83;20969;-80
2022/09/04 09:51:11;;;;;;;3.37;3.00;;;;;;;21.22;51.79;99512.22;2118942;84;21123;-81
2022/09/04 09:54:11;;;;;;;4.22;2.80;;;;;;;21.18;52.27;99511.86;2118967;84;20965;-80
2022/09/04 09:57:12;;;;;;;3.45;2.87;;;;;;;21.13;50.74;99509.30;2118692;84;20994;-81
2022/09/04 10:00:12;;;;;;;2.72;2.50;;;;;;;21.03;51.13;99518.36;2119216;84;20993;-81
2022/09/04 10:03:12;;;;;;;3.05;2.10;;;;;;;21.21;51.97;99510.02;2119084;83;21297;-81
2022/09/04 10:06:13;;;;;;;2.10;2.00;;;;;;;21.45;50.46;99510.44;2119135;84;20965;-81
2022/09/04 10:09:13;;;;;;;1.90;1.80;;;;;;;21.44;50.23;99510.89;2118962;84;21013;-80
2022/09/04 10:12:14;;;;;;;2.25;2.05;;;;;;;21.38;51.18;99509.70;2119213;84;20965;-80
2022/09/04 10:15:15;;;;;;;2.17;2.00;;;;;;;21.69;50.19;99511.71;2118845;84;21425;-80
2022/09/04 10:18:14;;;;;;;1.90;1.80;;;;;;;21.93;49.53;99508.48;2119080;84;20950;-80
2022/09/04 10:21:15;;;;;;;1.92;1.82;;;;;;;22.19;49.02;99516.74;2119298;84;20950;-80
2022/09/04 10:24:15;;;;;;;2.27;2.10;;;;;;;22.36;49.48;99521.64;2119001;84;20965;-81
2022/09/04 10:27:16;;;;;;;5.30;2.30;;;;;;;22.40;48.22;99522.44;2125607;84;21017;-81
2022/09/04 10:30:16;;;;;;;2.05;1.95;;;;;;;22.17;48.64;99517.69;2129010;84;20997;-81
2022/09/04 10:33:17;;;;;;;2.10;1.90;;;;;;;22.31;48.95;99517.34;2128673;84;21013;-81
2022/09/04 10:36:17;;;;;;;2.20;2.05;;;;;;;22.84;49.05;99502.25;2128779;83;21380;-80
2022/09/04 10:42:36;;;;;;;2.50;2.30;;;;;;;23.80;46.74;99499.46;2128685;83;20965;-79
2022/09/04 10:45:40;;;;;;;2.12;1.98;;;;;;;23.90;46.80;99499.17;2128563;84;21009;-79
2022/09/04 10:48:40;;;;;;;2.12;2.00;;;;;;;23.80;46.48;99501.25;2129072;84;20984;-80
2022/09/04 10:51:40;;;;;;;1.60;1.50;;;;;;;23.76;45.57;99508.48;2128520;84;20969;-79
2022/09/04 10:54:42;;;;;;;3.80;2.00;;;;;;;23.42;45.57;99506.39;2128887;84;20961;-80
2022/09/04 10:57:41;;;;;;;2.60;1.80;;;;;;;23.09;45.93;99512.20;2128806;83;21052;-79
2022/09/04 11:00:48;;;;;;;3.00;1.90;;;;;;;22.97;46.44;99513.42;2128270;84;21317;-79
2022/09/04 11:03:43;;;;;;;2.00;1.90;;;;;;;23.22;46.88;99512.73;2127113;84;20969;-80
2022/09/04 11:06:46;;;;;;;36.00;28.73;;;;;;;23.61;46.55;99520.07;2127696;84;21024;-79
2022/09/04 11:09:43;;;;;;;8.05;5.60;;;;;;;24.08;45.50;99521.24;2127424;83;21090;-81
2022/09/04 11:12:43;;;;;;;2.67;2.40;;;;;;;24.14;44.54;99525.92;2127843;84;20984;-80
2022/09/04 11:15:46;;;;;;;2.08;1.87;;;;;;;24.06;44.65;99527.96;2127615;84;21362;-80
2022/09/04 11:18:44;;;;;;;2.98;2.40;;;;;;;23.74;45.15;99521.44;2127065;84;21055;-80
2022/09/04 11:21:44;;;;;;;2.70;2.50;;;;;;;23.44;45.06;99522.75;2127631;84;21012;-81
2022/09/04 11:24:46;;;;;;;2.30;2.10;;;;;;;23.24;46.08;99524.22;2127973;84;21321;-80
2022/09/04 11:27:48;;;;;;;3.17;2.20;;;;;;;23.09;46.54;99521.07;2128229;84;21032;-81
2022/09/04 11:30:47;;;;;;;2.00;1.90;;;;;;;22.83;46.78;99517.80;2128471;84;20992;-79
2022/09/04 11:33:47;;;;;;;2.35;2.15;;;;;;;22.48;47.31;99522.66;2128661;84;20968;-79
2022/09/04 11:36:46;;;;;;;2.77;2.15;;;;;;;22.36;47.48;99515.45;2128497;84;20950;-79
2022/09/04 11:39:47;;;;;;;3.17;2.05;;;;;;;22.45;47.48;99518.75;2128648;84;21384;-80
2022/09/04 11:42:49;;;;;;;1.75;1.65;;;;;;;22.76;46.55;99514.86;2129074;83;21001;-80
2022/09/04 11:45:48;;;;;;;1.85;1.75;;;;;;;23.06;46.10;99517.16;2129071;83;20941;-80
2022/09/04 11:48:48;;;;;;;2.02;1.80;;;;;;;23.30;45.55;99517.38;2128846;84;21270;-80
2022/09/04 11:51:48;;;;;;;2.25;2.00;;;;;;;23.48;44.31;99513.75;2128712;84;20913;-80
2022/09/04 11:54:49;;;;;;;1.62;1.52;;;;;;;23.60;44.48;99513.87;2128910;84;21013;-80
2022/09/04 11:57:49;;;;;;;2.25;1.77;;;;;;;23.89;44.68;99512.09;2128552;84;21001;-79
2022/09/04 12:00:57;;;;;;;2.65;2.10;;;;;;;24.18;43.64;99503.14;2128551;83;20949;-80
2022/09/04 12:03:50;;;;;;;1.80;1.70;;;;;;;24.41;43.20;99516.20;2128886;84;21048;-80
2022/09/04 12:06:50;;;;;;;5.03;2.20;;;;;;;24.44;43.04;99505.87;2128954;83;20967;-80
2022/09/04 12:09:51;;;;;;;2.37;1.80;;;;;;;24.43;43.42;99509.47;2128592;84;21392;-80
2022/09/04 12:12:51;;;;;;;4.40;1.90;;;;;;;24.64;42.92;99502.06;2128574;84;20945;-79
2022/09/04 12:15:53;;;;;;;2.12;1.92;;;;;;;24.67;42.43;99508.63;2128880;84;20989;-80
2022/09/04 12:18:53;;;;;;;1.98;1.87;;;;;;;24.44;42.96;99511.22;2128362;84;21415;-79
2022/09/04 12:21:52;;;;;;;7.12;2.17;;;;;;;24.55;43.44;99507.72;2128118;84;20961;-81
2022/09/04 12:24:53;;;;;;;2.55;1.80;;;;;;;24.65;43.15;99509.61;2128483;84;20996;-80
2022/09/04 12:27:53;;;;;;;2.22;1.98;;;;;;;24.49;42.09;99506.59;2128599;83;21042;-80
2022/09/04 12:30:54;;;;;;;7.37;6.62;;;;;;;24.03;43.44;99500.52;2128772;84;20988;-81
2022/09/04 12:33:55;;;;;;;2.25;2.02;;;;;;;23.70;43.73;99510.45;2128936;84;20984;-81
2022/09/04 12:36:58;;;;;;;2.47;1.92;;;;;;;23.42;44.18;99509.93;2129076;84;20953;-80
2022/09/04 12:39:55;;;;;;;3.92;2.02;;;;;;;23.24;44.79;99504.23;2128840;84;21372;-81
2022/09/04 12:42:56;;;;;;;3.95;2.00;;;;;;;23.42;44.85;99508.59;2128615;84;20914;-80
2022/09/04 12:45:56;;;;;;;2.58;1.98;;;;;;;23.68;44.42;99510.51;2129117;83;20978;-81
2022/09/04 12:48:56;;;;;;;5.72;2.00;;;;;;;23.65;44.38;99507.94;2128843;84;21320;-81
2022/09/04 12:51:56;;;;;;;4.28;2.35;;;;;;;23.47;44.90;99500.47;2129049;83;20978;-80
2022/09/04 12:55:00;;;;;;;4.05;2.15;;;;;;;23.30;44.58;99505.39;2129120;84;21006;-80
2022/09/04 12:57:59;;;;;;;2.55;1.85;;;;;;;23.09;45.08;99502.89;2129073;84;21344;-80
2022/09/04 13:00:58;;;;;;;1.92;1.82;;;;;;;22.97;45.17;99500.12;2128803;84;20941;-80
2022/09/04 13:03:59;;;;;;;2.45;1.92;;;;;;;23.01;45.68;99498.23;2128922;84;20917;-80
2022/09/04 13:07:00;;;;;;;2.72;1.82;;;;;;;23.20;45.26;99508.78;2129182;84;20941;-80
2022/09/04 13:09:59;;;;;;;2.95;1.98;;;;;;;23.34;44.25;99501.26;2128704;84;21000;-80
2022/09/04 13:12:59;;;;;;;1.85;1.75;;;;;;;23.25;44.26;99503.32;2129243;84;20990;-80
2022/09/04 13:16:00;;;;;;;3.10;2.00;;;;;;;23.21;44.86;99501.20;2129287;84;20956;-81
2022/09/04 13:19:00;;;;;;;3.08;1.80;;;;;;;22.94;45.00;99499.33;2128976;84;21443;-79
2022/09/04 13:22:00;;;;;;;3.02;1.82;;;;;;;22.77;45.58;99500.63;2129254;84;21005;-80
2022/09/04 13:25:01;;;;;;;2.85;2.17;;;;;;;22.67;45.54;99502.25;2129240;84;21040;-79
2022/09/04 13:28:02;;;;;;;2.45;1.72;;;;;;;22.60;45.58;99500.22;2128973;84;21412;-80
2022/09/04 13:31:04;;;;;;;2.12;1.90;;;;;;;22.61;46.24;99502.42;2129020;84;21000;-80
2022/09/04 13:34:02;;;;;;;12.60;10.40;;;;;;;22.71;46.20;99497.27;2129393;84;20949;-81
2022/09/04 13:37:03;;;;;;;9.70;5.20;;;;;;;22.59;46.01;99498.92;2129427;83;21317;-80
2022/09/04 13:40:03;;;;;;;2.22;1.90;;;;;;;22.54;46.02;99502.58;2128799;83;21423;-80
2022/09/04 13:43:03;;;;;;;2.42;2.10;;;;;;;22.51;45.95;99507.95;2128966;84;20947;-79
2022/09/04 13:46:04;;;;;;;2.58;1.90;;;;;;;22.49;46.79;99504.45;2129207;84;20941;-81
2022/09/04 13:49:04;;;;;;;3.08;2.72;;;;;;;22.58;46.85;99506.49;2128917;84;21368;-81
2022/09/04 13:52:06;;;;;;;2.95;2.33;;;;;;;22.50;46.75;99509.31;2128910;84;21036;-81
2022/09/04 13:55:05;;;;;;;2.40;2.02;;;;;;;22.49;46.70;99507.57;2129226;84;20941;-80
2022/09/04 13:58:09;;;;;;;1.92;1.80;;;;;;;22.51;46.48;99508.41;2128966;84;21009;-80
2022/09/04 14:01:06;;;;;;;3.22;2.00;;;;;;;22.48;46.94;99506.70;2129033;84;21325;-80
2022/09/04 14:04:06;;;;;;;1.75;1.62;;;;;;;22.45;47.15;99508.56;2129179;84;20968;-80
2022/09/04 14:07:06;;;;;;;1.95;1.82;;;;;;;22.48;47.42;99512.02;2129085;84;20945;-80
2022/09/04 14:10:07;;;;;;;2.70;1.75;;;;;;;22.59;47.52;99509.11;2128772;84;21380;-80
2022/09/04 14:13:07;;;;;;;2.85;2.10;;;;;;;22.75;47.42;99512.23;2129176;84;20989;-80